Hurdsfield, North Dakota
Current Conditions -  °F | °C
As of 1:55 PM on Monday 24 Nov 2014 (Local Time) from K5H4 Reporting Station
Clear Clear  
Wind Chill:   Ceiling: Unl
Heat Index: 18°   Visibility: 10mi
Dew Point:   Wind: 13mph
Humidity: 49%   Direction: 300°WNW
Pressure: 29.92"   Gusts: NA
Location:  47.45°N, 99.93°W
Report Text: K5H4 241955Z AUTO 30011KT 10SM CLR M08/M17 A2992 RMK AO2
Loading
Personal Weather Stations






























Interactive Weather Map New forecast layout! Learn more

10-Day Weather Forecast

Advertisements
Track Severe Weather on mobile